createdAt,value
2023-03-17T00:01:19.766Z,55.54
2023-03-17T00:03:49.849Z,55.48
2023-03-17T00:06:23.755Z,55.42
2023-03-17T00:08:51.562Z,55.47
2023-03-17T00:11:19.548Z,55.57
2023-03-17T00:13:47.371Z,56.15
2023-03-17T00:16:20.110Z,56.10
2023-03-17T00:18:48.356Z,55.76
2023-03-17T00:21:23.525Z,56.27
2023-03-17T00:23:52.795Z,56.41
2023-03-17T00:26:20.676Z,56.46
2023-03-17T00:28:48.508Z,55.77
2023-03-17T00:31:20.658Z,56.12
2023-03-17T00:33:50.906Z,56.77
2023-03-17T00:36:22.709Z,57.25
2023-03-17T00:38:51.075Z,57.66
2023-03-17T00:41:19.292Z,58.30
2023-03-17T00:43:47.132Z,57.79
2023-03-17T00:46:17.736Z,58.39
2023-03-17T00:48:46.747Z,58.18
2023-03-17T00:51:15.557Z,58.54
2023-03-17T00:53:45.849Z,58.86
2023-03-17T00:56:16.193Z,59.18
2023-03-17T00:58:44.900Z,59.63
2023-03-17T01:01:13.278Z,59.87
2023-03-17T01:03:41.520Z,60.00
2023-03-17T01:06:12.482Z,60.20
2023-03-17T01:08:41.858Z,60.59
2023-03-17T01:11:16.118Z,60.37
2023-03-17T01:13:44.006Z,60.77
2023-03-17T01:16:12.312Z,60.89
2023-03-17T01:18:40.452Z,61.41
2023-03-17T01:21:08.324Z,61.32
2023-03-17T01:23:36.571Z,61.65
2023-03-17T01:26:04.774Z,62.24
2023-03-17T01:28:34.162Z,62.51
2023-03-17T01:31:02.758Z,62.70
2023-03-17T01:33:30.483Z,62.97
2023-03-17T01:35:58.508Z,63.02
2023-03-17T01:38:26.419Z,63.13
2023-03-17T01:40:54.825Z,63.25
2023-03-17T01:43:24.846Z,63.36
2023-03-17T01:46:29.175Z,64.07
2023-03-17T01:49:07.067Z,65.25
2023-03-17T01:51:39.842Z,65.54
2023-03-17T01:54:10.549Z,65.89
2023-03-17T01:56:39.681Z,66.29
2023-03-17T01:59:10.372Z,66.90
2023-03-17T02:01:44.855Z,66.89
2023-03-17T02:04:13.051Z,67.87
2023-03-17T02:06:55.049Z,68.13
2023-03-17T02:09:25.169Z,68.72
2023-03-17T02:11:53.071Z,68.91
2023-03-17T02:14:20.826Z,69.14
2023-03-17T02:16:49.999Z,68.96
2023-03-17T02:19:17.889Z,69.23
2023-03-17T02:21:48.647Z,70.23
2023-03-17T02:24:22.912Z,70.95
2023-03-17T02:26:52.584Z,71.08
2023-03-17T02:29:22.047Z,71.30
2023-03-17T02:31:50.177Z,72.32
2023-03-17T02:34:18.577Z,72.52
2023-03-17T02:36:47.765Z,72.65
2023-03-17T02:39:15.613Z,72.29
2023-03-17T02:41:43.406Z,72.15
2023-03-17T02:44:11.432Z,71.66
2023-03-17T02:46:39.241Z,71.82
2023-03-17T02:49:07.193Z,71.82
2023-03-17T02:51:34.951Z,71.76
2023-03-17T02:54:04.029Z,72.29
2023-03-17T02:56:31.956Z,72.76
2023-03-17T02:58:59.696Z,72.60
2023-03-17T03:01:27.809Z,72.66
2023-03-17T03:03:56.019Z,72.85
2023-03-17T03:06:24.767Z,73.35
2023-03-17T03:08:53.173Z,73.40
2023-03-17T03:11:22.501Z,73.52
2023-03-17T03:13:50.373Z,74.30
2023-03-17T03:16:18.277Z,74.23
2023-03-17T03:18:46.432Z,73.92
2023-03-17T03:21:14.353Z,73.85
2023-03-17T03:23:43.279Z,73.96
2023-03-17T03:26:11.074Z,74.26
2023-03-17T03:28:40.222Z,74.49
2023-03-17T03:31:08.113Z,75.43
2023-03-17T03:33:36.509Z,75.77
2023-03-17T03:36:04.671Z,76.04
2023-03-17T03:38:32.690Z,75.94
2023-03-17T03:41:00.481Z,76.68
2023-03-17T03:43:28.240Z,76.97
2023-03-17T03:45:57.364Z,77.73
2023-03-17T03:48:25.467Z,77.16
2023-03-17T03:50:57.741Z,77.08
2023-03-17T03:53:26.057Z,77.22
2023-03-17T03:55:54.220Z,77.30
2023-03-17T03:58:22.748Z,77.10
2023-03-17T04:00:51.172Z,77.18
2023-03-17T04:03:20.359Z,77.33
2023-03-17T04:05:48.108Z,76.88
2023-03-17T04:08:16.506Z,76.84
2023-03-17T04:10:44.604Z,76.86
2023-03-17T04:13:12.909Z,77.16
2023-03-17T04:15:43.642Z,77.79
2023-03-17T04:18:11.528Z,77.82
2023-03-17T04:20:40.663Z,78.02
2023-03-17T04:23:08.481Z,77.84
2023-03-17T04:25:36.740Z,78.17
2023-03-17T04:28:04.724Z,78.26
2023-03-17T04:30:32.799Z,78.58
2023-03-17T04:33:01.073Z,78.98
2023-03-17T04:35:28.951Z,78.79
2023-03-17T04:37:58.097Z,78.76
2023-03-17T04:40:26.570Z,78.49
2023-03-17T04:42:54.322Z,78.37
2023-03-17T04:45:22.235Z,78.40
2023-03-17T04:47:49.973Z,78.91
2023-03-17T04:50:18.021Z,78.60
2023-03-17T04:52:45.806Z,78.79
2023-03-17T04:55:14.897Z,78.52
2023-03-17T04:57:42.696Z,78.42
2023-03-17T05:00:12.815Z,78.65
2023-03-17T05:02:41.288Z,78.82
2023-03-17T05:05:09.914Z,78.59
2023-03-17T05:07:37.680Z,78.44
2023-03-17T05:10:06.598Z,79.01
2023-03-17T05:12:35.888Z,78.87
2023-03-17T05:15:05.444Z,79.11
2023-03-17T05:17:33.163Z,79.29
2023-03-17T05:20:00.925Z,79.26
2023-03-17T05:22:28.678Z,78.76
2023-03-17T05:24:56.412Z,78.54
2023-03-17T05:27:24.475Z,78.18
2023-03-17T05:29:53.674Z,79.17
2023-03-17T05:32:21.418Z,78.75
2023-03-17T05:34:50.020Z,78.73
2023-03-17T05:37:17.877Z,78.62
2023-03-17T05:39:45.619Z,77.77
2023-03-17T05:42:13.883Z,77.38
2023-03-17T05:44:44.556Z,76.84
2023-03-17T05:47:16.366Z,76.86
2023-03-17T05:49:44.114Z,76.89
2023-03-17T05:52:11.849Z,76.74
2023-03-17T05:54:39.705Z,76.56
2023-03-17T05:57:08.138Z,76.69
2023-03-17T05:59:36.218Z,76.37
2023-03-17T06:02:04.196Z,76.10
2023-03-17T06:04:34.267Z,75.51
2023-03-17T06:07:02.069Z,75.44
2023-03-17T06:09:29.901Z,75.44
2023-03-17T06:11:57.852Z,75.21
2023-03-17T06:14:27.131Z,74.22
2023-03-17T06:16:55.561Z,73.21
2023-03-17T06:19:23.512Z,72.24
2023-03-17T06:21:52.594Z,71.41
2023-03-17T06:24:20.357Z,71.96
2023-03-17T06:26:48.961Z,71.17
2023-03-17T06:29:16.708Z,70.39
2023-03-17T06:31:50.352Z,69.41
2023-03-17T06:34:22.945Z,69.53
2023-03-17T06:36:52.152Z,68.47
2023-03-17T06:39:19.907Z,69.10
2023-03-17T06:41:49.350Z,67.88
2023-03-17T06:44:17.274Z,67.99
2023-03-17T06:46:45.042Z,67.19
2023-03-17T06:49:13.493Z,66.88
2023-03-17T06:51:41.448Z,67.37
2023-03-17T06:54:11.468Z,67.39
2023-03-17T06:56:39.249Z,66.38
2023-03-17T06:59:07.043Z,66.09
2023-03-17T07:01:34.884Z,66.50
2023-03-17T07:04:02.686Z,65.36
2023-03-17T07:06:31.050Z,64.13
2023-03-17T07:09:02.466Z,63.91
2023-03-17T07:11:32.742Z,63.69
2023-03-17T07:14:00.623Z,62.69
2023-03-17T07:16:28.892Z,62.98
2023-03-17T07:18:56.991Z,62.54
2023-03-17T07:21:24.704Z,62.52
2023-03-17T07:23:52.454Z,62.60
2023-03-17T07:26:20.235Z,61.87
2023-03-17T07:28:49.368Z,62.09
2023-03-17T07:31:17.188Z,61.32
2023-03-17T07:33:45.105Z,61.03
2023-03-17T07:36:13.188Z,61.09
2023-03-17T07:38:41.708Z,60.69
2023-03-17T07:41:10.224Z,60.81
2023-03-17T07:43:39.128Z,60.15
2023-03-17T07:46:08.651Z,59.96
2023-03-17T07:48:40.762Z,59.93
2023-03-17T07:51:13.735Z,59.23
2023-03-17T07:53:41.770Z,59.28
2023-03-17T07:56:10.248Z,58.63
2023-03-17T07:58:38.266Z,58.88
2023-03-17T08:01:06.838Z,58.78
2023-03-17T08:03:37.696Z,58.72
2023-03-17T08:06:08.645Z,58.16
2023-03-17T08:08:36.957Z,57.12
2023-03-17T08:11:07.692Z,57.80
2023-03-17T08:13:36.127Z,56.43
2023-03-17T08:16:04.021Z,56.96
2023-03-17T08:18:32.026Z,56.93
2023-03-17T08:21:02.095Z,55.79
2023-03-17T08:23:30.109Z,55.05
2023-03-17T08:25:58.357Z,53.88
2023-03-17T08:28:26.213Z,53.97
2023-03-17T08:30:54.360Z,53.53
2023-03-17T08:33:23.516Z,54.58
2023-03-17T08:35:51.608Z,54.19
2023-03-17T08:38:20.716Z,52.78
2023-03-17T08:40:50.558Z,53.22
2023-03-17T08:43:18.719Z,54.16
2023-03-17T08:45:46.661Z,52.48
2023-03-17T08:48:15.343Z,51.80
2023-03-17T08:50:43.157Z,51.92
2023-03-17T08:53:11.061Z,50.98
2023-03-17T08:55:40.153Z,51.34
2023-03-17T08:58:08.323Z,50.65
2023-03-17T09:00:36.132Z,51.75
2023-03-17T09:03:03.959Z,50.44
2023-03-17T09:05:32.135Z,51.06
2023-03-17T09:08:00.238Z,50.77
2023-03-17T09:10:29.263Z,49.81
2023-03-17T09:13:02.960Z,50.39
2023-03-17T09:15:31.241Z,49.32
2023-03-17T09:17:59.156Z,50.29
2023-03-17T09:20:27.088Z,48.65
2023-03-17T09:22:56.454Z,47.59
2023-03-17T09:25:24.664Z,48.12
2023-03-17T09:27:52.501Z,47.69
2023-03-17T09:30:22.874Z,46.89
2023-03-17T09:32:50.663Z,47.59
2023-03-17T09:35:18.604Z,47.77
2023-03-17T09:37:46.493Z,47.13
2023-03-17T09:40:18.590Z,46.78
2023-03-17T09:42:55.590Z,46.71
2023-03-17T09:45:32.996Z,46.23
2023-03-17T09:48:25.086Z,45.94
2023-03-17T09:50:56.680Z,45.54
2023-03-17T09:53:28.224Z,46.70
2023-03-17T09:55:59.857Z,46.07
2023-03-17T09:58:33.119Z,45.44
2023-03-17T10:01:05.160Z,44.79
2023-03-17T10:03:34.150Z,45.04
2023-03-17T10:06:16.635Z,43.65
2023-03-17T10:08:52.440Z,42.58
2023-03-17T10:11:31.612Z,43.67
2023-03-17T10:14:03.583Z,43.63
2023-03-17T10:16:42.488Z,43.34
2023-03-17T10:19:22.541Z,42.04
2023-03-17T10:21:54.695Z,42.13
2023-03-17T10:24:25.651Z,42.13
2023-03-17T10:26:57.850Z,42.34
2023-03-17T10:29:26.133Z,42.71
2023-03-17T10:31:58.268Z,41.60
2023-03-17T10:34:28.646Z,41.67
2023-03-17T10:37:01.600Z,41.94
2023-03-17T10:39:32.542Z,40.49
2023-03-17T10:42:08.907Z,40.55
2023-03-17T10:44:42.039Z,41.15
2023-03-17T10:47:24.845Z,40.40
2023-03-17T10:49:53.484Z,39.46
2023-03-17T10:52:25.417Z,39.76
2023-03-17T10:54:53.212Z,39.33
2023-03-17T10:57:22.153Z,39.17
2023-03-17T10:59:53.855Z,39.06
2023-03-17T11:02:27.492Z,39.62
2023-03-17T11:05:00.685Z,38.97
2023-03-17T11:07:32.403Z,38.78
2023-03-17T11:10:03.346Z,38.12
2023-03-17T11:12:36.734Z,38.62
2023-03-17T11:15:08.309Z,37.96
2023-03-17T11:17:48.409Z,37.89
2023-03-17T11:20:36.087Z,38.59
2023-03-17T11:23:10.719Z,39.37
2023-03-17T11:25:43.385Z,38.99
2023-03-17T11:28:20.071Z,36.73
2023-03-17T11:30:59.472Z,37.15
2023-03-17T11:33:36.613Z,37.00
2023-03-17T11:36:13.830Z,37.02
2023-03-17T11:38:53.147Z,36.58
2023-03-17T11:41:41.720Z,36.93
2023-03-17T11:44:41.330Z,35.56
2023-03-17T11:47:21.793Z,36.76
2023-03-17T11:50:02.584Z,36.15
2023-03-17T11:52:37.741Z,35.92
2023-03-17T11:55:16.267Z,35.61
2023-03-17T11:57:49.484Z,35.05
2023-03-17T12:00:26.258Z,35.58
2023-03-17T12:02:59.436Z,36.05
2023-03-17T12:05:31.631Z,35.56
2023-03-17T12:08:03.917Z,35.65
2023-03-17T12:10:36.967Z,35.52
2023-03-17T12:13:09.125Z,34.86
2023-03-17T12:15:41.622Z,34.81
2023-03-17T12:18:15.542Z,34.59
2023-03-17T12:20:52.433Z,34.42
2023-03-17T12:23:30.348Z,34.56
2023-03-17T12:26:03.839Z,34.03
2023-03-17T12:28:37.549Z,34.89
2023-03-17T12:31:09.010Z,34.76
2023-03-17T12:33:43.753Z,33.03
2023-03-17T12:36:17.063Z,33.28
2023-03-17T12:38:49.803Z,33.57
2023-03-17T12:41:33.944Z,32.69
2023-03-17T12:44:12.823Z,33.26
2023-03-17T12:46:51.870Z,32.90
2023-03-17T12:49:40.929Z,32.75
2023-03-17T12:52:26.309Z,32.78
2023-03-17T12:54:54.711Z,32.64
2023-03-17T12:57:28.538Z,33.46
2023-03-17T13:00:01.642Z,32.21
2023-03-17T13:02:36.938Z,32.49
2023-03-17T13:05:09.228Z,31.79
2023-03-17T13:07:47.908Z,32.12
2023-03-17T13:10:36.306Z,32.18
2023-03-17T13:13:21.924Z,32.39
2023-03-17T13:15:56.053Z,31.67
2023-03-17T13:18:53.099Z,32.02
2023-03-17T13:21:24.990Z,31.90
2023-03-17T13:24:00.024Z,31.93
2023-03-17T13:26:55.309Z,31.99
2023-03-17T13:29:42.925Z,31.65
2023-03-17T13:32:39.678Z,31.28
2023-03-17T13:35:16.797Z,31.51
2023-03-17T13:38:11.429Z,31.95
2023-03-17T13:40:51.841Z,32.00
2023-03-17T13:44:06.676Z,31.61
2023-03-17T13:46:44.063Z,31.55
2023-03-17T13:49:22.399Z,31.58
2023-03-17T13:52:00.032Z,31.83
2023-03-17T13:54:34.167Z,31.73
2023-03-17T13:57:25.530Z,31.45
2023-03-17T14:00:00.808Z,31.67
2023-03-17T14:02:32.770Z,30.77
2023-03-17T14:05:02.637Z,31.24
2023-03-17T14:07:37.376Z,31.32
2023-03-17T14:10:05.781Z,31.84
2023-03-17T14:12:43.008Z,31.23
2023-03-17T14:15:18.898Z,31.43
2023-03-17T14:17:51.305Z,31.18
2023-03-17T14:20:24.486Z,32.44
2023-03-17T14:22:56.197Z,31.14
2023-03-17T14:25:26.143Z,31.43
2023-03-17T14:27:58.077Z,31.15
2023-03-17T14:30:28.955Z,31.75
2023-03-17T14:33:02.900Z,31.32
2023-03-17T14:35:32.453Z,31.22
2023-03-17T14:38:01.289Z,31.90
2023-03-17T14:40:32.305Z,31.77
2023-03-17T14:43:01.777Z,31.72
2023-03-17T14:45:39.517Z,31.09
2023-03-17T14:48:10.380Z,31.93
2023-03-17T14:50:38.196Z,31.16
2023-03-17T14:53:10.778Z,31.20
2023-03-17T14:55:43.267Z,31.38
2023-03-17T14:58:23.132Z,31.27
2023-03-17T15:00:57.091Z,31.95
2023-03-17T15:03:28.912Z,32.13
2023-03-17T15:06:07.868Z,31.63
2023-03-17T15:08:46.908Z,31.56
2023-03-17T15:11:21.676Z,32.13
2023-03-17T15:13:54.014Z,31.73
2023-03-17T15:16:25.480Z,30.93
2023-03-17T15:19:03.998Z,31.40
2023-03-17T15:21:36.099Z,31.95
2023-03-17T15:24:30.238Z,31.50
2023-03-17T15:27:06.060Z,31.46
2023-03-17T15:29:35.309Z,31.53
2023-03-17T15:32:11.654Z,31.66
2023-03-17T15:34:39.487Z,31.56
2023-03-17T15:37:15.548Z,31.37
2023-03-17T15:39:43.391Z,31.53
2023-03-17T15:42:12.341Z,32.19
2023-03-17T15:44:41.629Z,32.01
2023-03-17T15:47:14.258Z,31.62
2023-03-17T15:49:42.094Z,31.84
2023-03-17T15:52:16.845Z,31.73
2023-03-17T15:54:45.156Z,31.53
2023-03-17T15:57:13.779Z,31.97
2023-03-17T15:59:43.043Z,32.17
2023-03-17T16:02:27.496Z,32.20
2023-03-17T16:04:56.248Z,32.11
2023-03-17T16:07:24.831Z,32.24
2023-03-17T16:09:53.056Z,32.34
2023-03-17T16:12:21.203Z,32.95
2023-03-17T16:14:50.420Z,32.61
2023-03-17T16:17:26.744Z,33.02
2023-03-17T16:19:55.926Z,33.19
2023-03-17T16:22:38.174Z,32.46
2023-03-17T16:25:18.997Z,33.16
2023-03-17T16:27:46.911Z,32.83
2023-03-17T16:30:19.515Z,32.68
2023-03-17T16:32:47.362Z,33.12
2023-03-17T16:35:16.667Z,33.09
2023-03-17T16:37:44.509Z,33.25
2023-03-17T16:40:21.695Z,33.45
2023-03-17T16:42:49.837Z,33.12
2023-03-17T16:45:23.225Z,33.40
2023-03-17T16:47:51.079Z,33.38
2023-03-17T16:50:22.157Z,33.40
2023-03-17T16:52:49.926Z,33.41
2023-03-17T16:55:19.267Z,34.01
2023-03-17T16:57:48.961Z,33.66
2023-03-17T17:00:21.765Z,34.52
2023-03-17T17:02:50.020Z,33.89
2023-03-17T17:05:19.978Z,34.27
2023-03-17T17:07:48.238Z,34.33
2023-03-17T17:10:17.962Z,34.26
2023-03-17T17:12:45.876Z,34.17
2023-03-17T17:15:15.355Z,34.16
2023-03-17T17:17:46.512Z,34.81
2023-03-17T17:20:16.707Z,35.30
2023-03-17T17:22:44.877Z,35.32
2023-03-17T17:25:12.781Z,34.75
2023-03-17T17:27:42.444Z,34.88
2023-03-17T17:30:14.051Z,35.34
2023-03-17T17:32:42.237Z,35.32
2023-03-17T17:35:12.477Z,35.41
2023-03-17T17:37:40.620Z,35.77
2023-03-17T17:40:14.128Z,35.54
2023-03-17T17:42:42.173Z,35.67
2023-03-17T17:45:11.311Z,35.57
2023-03-17T17:47:39.228Z,35.55
2023-03-17T17:50:08.980Z,35.63
2023-03-17T17:52:38.311Z,35.38
2023-03-17T17:55:06.989Z,35.84
2023-03-17T17:57:34.778Z,35.84
2023-03-17T18:00:02.616Z,36.15
2023-03-17T18:02:30.710Z,35.80
2023-03-17T18:04:59.611Z,35.87
2023-03-17T18:07:27.579Z,35.84
2023-03-17T18:09:56.664Z,36.35
2023-03-17T18:12:24.492Z,36.13
2023-03-17T18:14:52.245Z,35.91
2023-03-17T18:17:21.937Z,36.14
2023-03-17T18:19:50.408Z,36.29
2023-03-17T18:22:18.212Z,36.62
2023-03-17T18:24:46.568Z,36.29
2023-03-17T18:27:16.858Z,36.19
2023-03-17T18:29:45.304Z,36.25
2023-03-17T18:32:13.989Z,36.37
2023-03-17T18:34:47.107Z,36.35
2023-03-17T18:37:17.882Z,36.44
2023-03-17T18:39:52.980Z,36.59
2023-03-17T18:42:28.246Z,36.57
2023-03-17T18:44:56.042Z,36.69
2023-03-17T18:47:23.862Z,36.69
2023-03-17T18:49:51.645Z,36.79
2023-03-17T18:52:19.636Z,37.01
2023-03-17T18:54:47.356Z,36.77
2023-03-17T18:57:15.423Z,36.88
2023-03-17T18:59:44.689Z,36.72
2023-03-17T19:02:12.483Z,36.64
2023-03-17T19:04:46.004Z,36.79
2023-03-17T19:07:14.391Z,36.53
2023-03-17T19:09:42.353Z,36.85
2023-03-17T19:12:10.330Z,37.03
2023-03-17T19:14:39.890Z,36.82
2023-03-17T19:17:09.768Z,37.16
2023-03-17T19:19:37.905Z,36.89
2023-03-17T19:22:06.714Z,36.85
2023-03-17T19:24:37.150Z,36.68
2023-03-17T19:27:05.183Z,36.64
2023-03-17T19:29:33.525Z,36.68
2023-03-17T19:32:02.311Z,36.91
2023-03-17T19:34:31.478Z,36.80
2023-03-17T19:36:59.307Z,37.14
2023-03-17T19:39:27.212Z,36.81
2023-03-17T19:41:55.687Z,37.27
2023-03-17T19:44:23.527Z,37.28
2023-03-17T19:46:51.552Z,36.90
2023-03-17T19:49:21.056Z,36.64
2023-03-17T19:51:50.611Z,36.57
2023-03-17T19:54:18.779Z,37.13
2023-03-17T19:56:46.562Z,36.96
2023-03-17T19:59:15.340Z,37.03
2023-03-17T20:01:43.147Z,37.29
2023-03-17T20:04:17.497Z,37.18
2023-03-17T20:06:45.317Z,36.90
2023-03-17T20:09:14.721Z,37.06
2023-03-17T20:11:42.473Z,37.11
2023-03-17T20:14:10.754Z,37.05
2023-03-17T20:16:40.343Z,37.33
2023-03-17T20:19:09.344Z,37.69
2023-03-17T20:21:37.702Z,37.61
2023-03-17T20:24:06.928Z,37.30
2023-03-17T20:26:36.337Z,37.74
2023-03-17T20:29:04.141Z,37.74
2023-03-17T20:31:32.074Z,37.85
2023-03-17T20:33:59.909Z,37.60
2023-03-17T20:36:28.019Z,38.02
2023-03-17T20:38:55.777Z,37.94
2023-03-17T20:41:23.969Z,37.76
2023-03-17T20:43:53.127Z,37.74
2023-03-17T20:46:23.072Z,37.78
2023-03-17T20:48:52.052Z,37.66
2023-03-17T20:51:20.074Z,38.35
2023-03-17T20:53:50.848Z,37.80
2023-03-17T20:56:22.228Z,38.13
2023-03-17T20:58:51.076Z,38.68
2023-03-17T21:01:22.400Z,38.40
2023-03-17T21:03:51.443Z,38.65
2023-03-17T21:06:19.735Z,38.68
2023-03-17T21:08:47.971Z,38.46
2023-03-17T21:11:18.133Z,38.56
2023-03-17T21:13:45.955Z,38.95
2023-03-17T21:16:18.035Z,39.25
2023-03-17T21:18:47.805Z,39.30
2023-03-17T21:21:15.764Z,39.20
2023-03-17T21:23:43.654Z,39.43
2023-03-17T21:26:11.957Z,39.31
2023-03-17T21:28:41.584Z,40.11
2023-03-17T21:31:10.155Z,39.22
2023-03-17T21:33:38.117Z,39.06
2023-03-17T21:36:08.417Z,40.13
2023-03-17T21:38:36.198Z,40.44
2023-03-17T21:41:20.091Z,39.96
2023-03-17T21:43:48.237Z,40.42
2023-03-17T21:46:16.104Z,39.99
2023-03-17T21:48:44.146Z,40.00
2023-03-17T21:51:13.776Z,40.54
2023-03-17T21:53:41.652Z,40.46
2023-03-17T21:56:12.358Z,40.41
2023-03-17T21:58:40.689Z,40.66
2023-03-17T22:01:09.160Z,40.34
2023-03-17T22:03:39.553Z,41.15
2023-03-17T22:06:08.329Z,40.84
2023-03-17T22:08:37.455Z,40.87
2023-03-17T22:11:08.476Z,41.15
2023-03-17T22:13:36.548Z,41.10
2023-03-17T22:16:05.322Z,41.00
2023-03-17T22:18:33.424Z,41.37
2023-03-17T22:21:01.747Z,41.52
2023-03-17T22:23:30.367Z,41.08
2023-03-17T22:25:59.792Z,41.53
2023-03-17T22:28:27.862Z,41.44
2023-03-17T22:30:55.665Z,41.84
2023-03-17T22:33:23.455Z,41.84
2023-03-17T22:35:51.325Z,41.52
2023-03-17T22:38:19.107Z,41.89
2023-03-17T22:40:46.856Z,41.86
2023-03-17T22:43:16.005Z,42.05
2023-03-17T22:45:43.748Z,42.24
2023-03-17T22:48:11.698Z,42.27
2023-03-17T22:50:39.484Z,41.97
2023-03-17T22:53:07.212Z,42.18
2023-03-17T22:55:34.980Z,42.59
2023-03-17T22:58:02.778Z,42.69
2023-03-17T23:00:32.401Z,42.41
2023-03-17T23:03:00.370Z,42.68
2023-03-17T23:05:28.147Z,43.08
2023-03-17T23:07:55.973Z,43.09
2023-03-17T23:10:24.749Z,42.85
2023-03-17T23:12:53.000Z,43.39
2023-03-17T23:15:21.517Z,42.79
2023-03-17T23:17:50.816Z,43.23
2023-03-17T23:20:19.016Z,43.63
2023-03-17T23:22:47.058Z,43.43
2023-03-17T23:25:14.817Z,43.62
2023-03-17T23:27:42.738Z,44.05
2023-03-17T23:30:12.910Z,44.02
2023-03-17T23:32:41.783Z,44.25
2023-03-17T23:35:12.662Z,43.83
2023-03-17T23:37:41.004Z,44.03
2023-03-17T23:40:10.471Z,44.21
2023-03-17T23:42:38.196Z,44.56
2023-03-17T23:45:07.044Z,45.44
2023-03-17T23:47:34.931Z,45.59
2023-03-17T23:50:03.504Z,45.63
2023-03-17T23:52:32.752Z,45.96
2023-03-17T23:55:01.039Z,45.93
2023-03-17T23:57:29.026Z,46.31
2023-03-17T23:59:57.213Z,46.49
